Time;durP1;ratioP1;P1;durP2;ratioP2;P2;SDS_P1;SDS_P2;PMS_P1;PMS_P2;Temp;Humidity;BMP_temperature;BMP_pressure;BME280_temperature;BME280_humidity;BME280_pressure;Samples;Min_cycle;Max_cycle;Signal;HPM_P1;HPM_P2
2021/05/11 00:01:35;;;;;;;;;;;;;;;;;;4295232;33;20302;-94
2021/05/11 00:04:03;;;;;;;;;;;;;;;;;;4291726;33;19945;-95
2021/05/11 00:06:36;;;;;;;;;;;;;;;;;;4279021;33;20009;-94
2021/05/11 00:09:04;;;;;;;;;;;;;;;;;;4275746;33;20715;-94
2021/05/11 00:11:35;;;;;;;;;;;;;;;;;;4287951;33;20002;-94
2021/05/11 00:14:05;;;;;;;;;;;;;;;;;;4278736;33;19959;-94
2021/05/11 00:16:35;;;;;;;;;;;;;;;;;;4293350;33;20380;-94
2021/05/11 00:19:06;;;;;;;;;;;;;;;;;;4283798;33;19989;-95
2021/05/11 00:21:39;;;;;;;;;;;;;;;;;;4284023;33;19971;-95
2021/05/11 00:24:10;;;;;;;;;;;;;;;;;;4282315;33;19992;-94
2021/05/11 00:26:40;;;;;;;;;;;;;;;;;;4282085;33;20601;-96
2021/05/11 00:29:08;;;;;;;;;;;;;;;;;;4291060;33;19976;-94
2021/05/11 00:31:36;;;;;;;;;;;;;;;;;;4276132;33;20034;-95
2021/05/11 00:34:04;;;;;;;;;;;;;;;;;;4284261;33;19984;-95
2021/05/11 00:36:32;;;;;;;;;;;;;;;;;;4283099;33;19963;-95
2021/05/11 00:39:03;;;;;;;;;;;;;;;;;;4284924;33;19956;-93
2021/05/11 00:41:33;;;;;;;;;;;;;;;;;;4278749;33;20358;-94
2021/05/11 00:44:04;;;;;;;;;;;;;;;;;;4278149;33;19956;-94
2021/05/11 00:46:35;;;;;;;;;;;;;;;;;;4278819;33;19945;-94
2021/05/11 00:49:06;;;;;;;;;;;;;;;;;;4279983;33;19992;-95
2021/05/11 00:51:37;;;;;;;;;;;;;;;;;;4286369;33;19975;-96
2021/05/11 00:54:09;;;;;;;;;;;;;;;;;;4288178;33;19995;-94
2021/05/11 00:56:37;;;;;;;;;;;;;;;;;;4285664;33;19964;-94
2021/05/11 00:59:13;;;;;;;;;;;;;;;;;;4277272;33;19941;-95
2021/05/11 01:01:44;;;;;;;;;;;;;;;;;;4298464;33;20019;-93
2021/05/11 01:04:14;;;;;;;;;;;;;;;;;;4290622;33;19957;-95
2021/05/11 01:06:51;;;;;;;;;;;;;;;;;;4295399;33;19960;-95
2021/05/11 01:09:23;;;;;;;;;;;;;;;;;;4316746;33;19996;-93
2021/05/11 01:11:51;;;;;;;;;;;;;;;;;;4289695;33;19949;-94
2021/05/11 01:14:22;;;;;;;;;;;;;;;;;;4293014;33;20011;-94
2021/05/11 01:16:56;;;;;;;;;;;;;;;;;;4292960;33;19956;-94
2021/05/11 01:25:09;;;;;;;;;;;;;;;;;;4303856;33;19959;-94
2021/05/11 01:47:30;;;;;;;;;;;;;;;;;;4311547;33;19960;-92
2021/05/11 01:50:05;;;;;;;;;;;;;;;;;;4298537;33;19964;-93
2021/05/11 01:52:59;;;;;;;;;;;;;;;;;;4294656;33;19964;-93
2021/05/11 02:23:29;;;;;;;;;;;;;;;;;;4325921;33;19956;-93
2021/05/11 02:25:59;;;;;;;;;;;;;;;;;;4311408;33;20299;-94
2021/05/11 02:28:35;;;;;;;;;;;;;;;;;;4301913;33;19992;-92
2021/05/11 02:31:07;;;;;;;;;;;;;;;;;;4306128;33;19979;-92
2021/05/11 02:33:38;;;;;;;;;;;;;;;;;;4293781;33;19999;-93
2021/05/11 02:36:06;;;;;;;;;;;;;;;;;;4312032;33;20020;-93
2021/05/11 02:38:37;;;;;;;;;;;;;;;;;;4294182;33;20272;-93
2021/05/11 02:41:09;;;;;;;;;;;;;;;;;;4314878;33;19962;-92
2021/05/11 02:43:42;;;;;;;;;;;;;;;;;;4294513;33;19970;-94
2021/05/11 02:46:12;;;;;;;;;;;;;;;;;;4288280;33;19980;-94
2021/05/11 02:48:40;;;;;;;;;;;;;;;;;;4304431;33;19968;-93
2021/05/11 02:51:15;;;;;;;;;;;;;;;;;;4284894;33;19995;-93
2021/05/11 02:53:47;;;;;;;;;;;;;;;;;;4298864;33;19990;-92
2021/05/11 02:56:18;;;;;;;;;;;;;;;;;;4286362;33;19953;-93
2021/05/11 02:58:55;;;;;;;;;;;;;;;;;;4303804;33;20491;-93
2021/05/11 03:01:25;;;;;;;;;;;;;;;;;;4309902;33;19949;-92
2021/05/11 03:03:53;;;;;;;;;;;;;;;;;;4297513;33;19949;-93
2021/05/11 03:06:21;;;;;;;;;;;;;;;;;;4312909;33;19940;-94
2021/05/11 03:08:53;;;;;;;;;;;;;;;;;;4290231;33;20006;-92
2021/05/11 03:11:21;;;;;;;;;;;;;;;;;;4286990;33;20736;-93
2021/05/11 03:13:54;;;;;;;;;;;;;;;;;;4284752;33;19954;-93
2021/05/11 03:16:24;;;;;;;;;;;;;;;;;;4284683;33;19965;-94
2021/05/11 03:18:57;;;;;;;;;;;;;;;;;;4319785;33;19999;-93
2021/05/11 03:21:31;;;;;;;;;;;;;;;;;;4289752;33;19990;-92
2021/05/11 03:24:02;;;;;;;;;;;;;;;;;;4309755;33;19948;-94
2021/05/11 03:26:33;;;;;;;;;;;;;;;;;;4314918;33;19963;-95
2021/05/11 03:29:05;;;;;;;;;;;;;;;;;;4314977;33;19996;-94
2021/05/11 03:31:36;;;;;;;;;;;;;;;;;;4297498;33;20003;-93
2021/05/11 03:34:07;;;;;;;;;;;;;;;;;;4304961;33;19995;-89
2021/05/11 03:36:42;;;;;;;;;;;;;;;;;;4315613;33;19976;-94
2021/05/11 03:39:15;;;;;;;;;;;;;;;;;;4300202;33;20505;-94
2021/05/11 03:41:53;;;;;;;;;;;;;;;;;;4290596;33;20006;-91
2021/05/11 03:44:27;;;;;;;;;;;;;;;;;;4318187;33;20286;-93
2021/05/11 03:47:04;;;;;;;;;;;;;;;;;;4290225;33;19965;-94
2021/05/11 03:49:38;;;;;;;;;;;;;;;;;;4301248;33;20084;-93
2021/05/11 03:52:09;;;;;;;;;;;;;;;;;;4301043;33;19991;-93
2021/05/11 03:54:39;;;;;;;;;;;;;;;;;;4331583;33;19975;-93
2021/05/11 03:57:09;;;;;;;;;;;;;;;;;;4290016;33;19946;-92
2021/05/11 03:59:41;;;;;;;;;;;;;;;;;;4308007;33;19956;-92
2021/05/11 04:02:12;;;;;;;;;;;;;;;;;;4290183;33;19978;-93
2021/05/11 04:04:45;;;;;;;;;;;;;;;;;;4308172;33;19971;-94
2021/05/11 04:07:17;;;;;;;;;;;;;;;;;;4315193;33;19960;-94
2021/05/11 04:10:02;;;;;;;;;;;;;;;;;;4301640;33;19976;-95
2021/05/11 04:18:14;;;;;;;;;;;;;;;;;;4297464;33;20004;-93
2021/05/11 04:20:46;;;;;;;;;;;;;;;;;;4315729;33;19957;-94
2021/05/11 04:23:23;;;;;;;;;;;;;;;;;;4314434;33;19980;-94
2021/05/11 04:25:59;;;;;;;;;;;;;;;;;;4305182;33;20015;-94
2021/05/11 04:28:33;;;;;;;;;;;;;;;;;;4317702;33;20293;-95
2021/05/11 04:31:05;;;;;;;;;;;;;;;;;;4313091;33;19970;-95
2021/05/11 04:33:33;;;;;;;;;;;;;;;;;;4319119;33;20028;-93
2021/05/11 04:36:02;;;;;;;;;;;;;;;;;;4312875;33;20398;-95
2021/05/11 04:38:33;;;;;;;;;;;;;;;;;;4300859;33;20751;-91
2021/05/11 04:41:09;;;;;;;;;;;;;;;;;;4301850;33;20288;-92
2021/05/11 04:43:39;;;;;;;;;;;;;;;;;;4311507;33;20002;-94
2021/05/11 04:48:47;;;;;;;;;;;;;;;;;;4297154;33;19956;-93
2021/05/11 04:51:16;;;;;;;;;;;;;;;;;;4302902;33;20012;-93
2021/05/11 04:53:49;;;;;;;;;;;;;;;;;;4315501;33;19992;-94
2021/05/11 04:56:18;;;;;;;;;;;;;;;;;;4315034;33;19952;-92
2021/05/11 04:58:50;;;;;;;;;;;;;;;;;;4308953;33;19984;-94
2021/05/11 05:01:22;;;;;;;;;;;;;;;;;;4315276;33;19953;-92
2021/05/11 05:03:58;;;;;;;;;;;;;;;;;;4293152;33;19964;-92
2021/05/11 05:06:28;;;;;;;;;;;;;;;;;;4288373;33;19998;-94
2021/05/11 05:09:02;;;;;;;;;;;;;;;;;;4300485;33;20019;-93
2021/05/11 05:11:31;;;;;;;;;;;;;;;;;;4300694;33;19965;-92
2021/05/11 05:14:09;;;;;;;;;;;;;;;;;;4319055;33;20004;-93
2021/05/11 05:16:41;;;;;;;;;;;;;;;;;;4302171;33;19963;-94
2021/05/11 05:19:18;;;;;;;;;;;;;;;;;;4300718;33;19972;-92
2021/05/11 05:21:49;;;;;;;;;;;;;;;;;;4309598;33;19963;-91
2021/05/11 05:24:25;;;;;;;;;;;;;;;;;;4310828;33;19983;-93
2021/05/11 05:27:01;;;;;;;;;;;;;;;;;;4311010;33;20026;-92
2021/05/11 05:29:33;;;;;;;;;;;;;;;;;;4307922;33;20023;-92
2021/05/11 05:32:09;;;;;;;;;;;;;;;;;;4312028;33;19990;-90
2021/05/11 05:34:38;;;;;;;;;;;;;;;;;;4314058;33;20003;-93
2021/05/11 05:37:09;;;;;;;;;;;;;;;;;;4299348;33;20734;-92
2021/05/11 05:39:42;;;;;;;;;;;;;;;;;;4322632;33;19960;-94
2021/05/11 05:42:14;;;;;;;;;;;;;;;;;;4306942;33;20028;-94
2021/05/11 05:44:45;;;;;;;;;;;;;;;;;;4322512;33;19979;-94
2021/05/11 05:47:21;;;;;;;;;;;;;;;;;;4307462;33;20333;-93
2021/05/11 05:49:54;;;;;;;;;;;;;;;;;;4294064;33;20030;-94
2021/05/11 05:52:34;;;;;;;;;;;;;;;;;;4308645;33;19964;-92
2021/05/11 05:55:06;;;;;;;;;;;;;;;;;;4298112;33;21279;-92
2021/05/11 05:57:35;;;;;;;;;;;;;;;;;;4322609;33;19998;-94
2021/05/11 06:00:09;;;;;;;;;;;;;;;;;;4316761;33;20004;-93
2021/05/11 06:02:44;;;;;;;;;;;;;;;;;;4299010;33;19956;-92
2021/05/11 06:05:19;;;;;;;;;;;;;;;;;;4307370;33;19975;-93
2021/05/11 06:08:00;;;;;;;;;;;;;;;;;;4291686;33;19999;-94
2021/05/11 06:10:30;;;;;;;;;;;;;;;;;;4313285;33;20502;-93
2021/05/11 06:13:07;;;;;;;;;;;;;;;;;;4279386;33;19949;-95
2021/05/11 06:18:37;;;;;;;;;;;;;;;;;;4326437;33;20000;-93
2021/05/11 06:21:12;;;;;;;;;;;;;;;;;;4315515;33;19968;-94
2021/05/11 06:23:49;;;;;;;;;;;;;;;;;;4308805;33;19957;-95
2021/05/11 06:26:34;;;;;;;;;;;;;;;;;;4301369;33;20395;-93
2021/05/11 06:29:12;;;;;;;;;;;;;;;;;;4325294;33;20503;-94
2021/05/11 06:31:45;;;;;;;;;;;;;;;;;;4289007;33;19948;-94
2021/05/11 06:34:24;;;;;;;;;;;;;;;;;;4285440;33;19948;-94
2021/05/11 06:37:03;;;;;;;;;;;;;;;;;;4322066;33;19963;-94
2021/05/11 06:39:36;;;;;;;;;;;;;;;;;;4299682;33;19985;-93
2021/05/11 06:42:09;;;;;;;;;;;;;;;;;;4322435;33;19965;-95
2021/05/11 06:45:04;;;;;;;;;;;;;;;;;;4302911;33;19956;-94
2021/05/11 06:48:01;;;;;;;;;;;;;;;;;;4296797;33;19992;-93
2021/05/11 06:52:38;;;;;;;;;;;;;;;;;;4303918;33;19996;-95
2021/05/11 06:53:41;;;;;;;;;;;;;;;;;;4304894;33;19952;-95
2021/05/11 06:56:17;;;;;;;;;;;;;;;;;;4313882;33;19948;-93
2021/05/11 06:58:59;;;;;;;;;;;;;;;;;;4298748;33;19953;-93
2021/05/11 07:01:30;;;;;;;;;;;;;;;;;;4328621;33;19960;-94
2021/05/11 07:04:11;;;;;;;;;;;;;;;;;;4298815;33;19967;-96
2021/05/11 07:06:57;;;;;;;;;;;;;;;;;;4289502;33;20054;-95
2021/05/11 07:10:08;;;;;;;;;;;;;;;;;;4313306;33;20049;-96
2021/05/11 07:15:59;;;;;;;;;;;;;;;;;;4285098;33;20325;-95
2021/05/11 07:18:43;;;;;;;;;;;;;;;;;;4286203;33;19967;-94
2021/05/11 07:21:26;;;;;;;;;;;;;;;;;;4290929;33;19957;-96
2021/05/11 07:24:03;;;;;;;;;;;;;;;;;;4289715;33;20407;-96
2021/05/11 07:27:11;;;;;;;;;;;;;;;;;;4298202;33;20047;-96
2021/05/11 07:29:43;;;;;;;;;;;;;;;;;;4301333;33;19995;-95
2021/05/11 07:32:26;;;;;;;;;;;;;;;;;;4296165;33;19987;-96
2021/05/11 07:35:04;;;;;;;;;;;;;;;;;;4312636;33;19984;-95
2021/05/11 07:37:35;;;;;;;;;;;;;;;;;;4313892;33;19960;-96
2021/05/11 07:40:06;;;;;;;;;;;;;;;;;;4309123;33;19988;-96
2021/05/11 07:42:38;;;;;;;;;;;;;;;;;;4307697;33;19974;-93
2021/05/11 07:45:09;;;;;;;;;;;;;;;;;;4293467;33;19995;-94
2021/05/11 08:14:27;;;;;;;;;;;;;;;;;;4310418;33;19956;-94
2021/05/11 08:16:40;;;;;;;;;;;;;;;;;;4313421;33;19968;-93
2021/05/11 08:30:03;;;;;;;;;;;;;;;;;;4298199;33;20040;-95
2021/05/11 08:33:10;;;;;;;;;;;;;;;;;;4308258;33;20285;-95
2021/05/11 08:35:38;;;;;;;;;;;;;;;;;;4286672;33;20294;-94
2021/05/11 08:38:13;;;;;;;;;;;;;;;;;;4290291;33;20082;-94
2021/05/11 08:40:46;;;;;;;;;;;;;;;;;;4295050;33;19960;-95
2021/05/11 08:43:22;;;;;;;;;;;;;;;;;;4314531;33;20273;-93
2021/05/11 08:45:53;;;;;;;;;;;;;;;;;;4324986;33;19987;-94
2021/05/11 08:48:36;;;;;;;;;;;;;;;;;;4300430;33;19970;-95
2021/05/11 08:51:22;;;;;;;;;;;;;;;;;;4296026;33;20457;-95
2021/05/11 09:00:07;;;;;;;;;;;;;;;;;;4300736;33;19967;-94
2021/05/11 09:06:10;;;;;;;;;;;;;;;;;;4310210;33;20010;-96
2021/05/11 09:30:29;;;;;;;;;;;;;;;;;;4238557;33;19966;-86
2021/05/11 09:33:17;;;;;;;;;;;;;;;;;;4261718;33;19975;-84
2021/05/11 10:42:19;;;;;;;;;;;;;;;;;;4250838;33;20404;-87
2021/05/11 10:45:09;;;;;;;;;;;;;;;;;;4240493;33;19985;-90
2021/05/11 10:47:41;;;;;;;;;;;;;;;;;;4269971;33;19965;-92
2021/05/11 10:50:26;;;;;;;;;;;;;;;;;;4258190;33;19976;-91
2021/05/11 10:53:10;;;;;;;;;;;;;;;;;;4258988;33;19965;-87
2021/05/11 10:55:50;;;;;;;;;;;;;;;;;;4243201;33;19980;-87
2021/05/11 10:58:26;;;;;;;;;;;;;;;;;;4260965;33;19985;-88
2021/05/11 11:00:58;;;;;;;;;;;;;;;;;;4259730;33;19976;-91
2021/05/11 11:03:32;;;;;;;;;;;;;;;;;;4263066;33;19965;-86
2021/05/11 11:06:07;;;;;;;;;;;;;;;;;;4278066;33;20289;-87
2021/05/11 11:08:37;;;;;;;;;;;;;;;;;;4258427;33;19993;-87
2021/05/11 11:11:26;;;;;;;;;;;;;;;;;;4265680;33;20427;-87
2021/05/11 11:13:56;;;;;;;;;;;;;;;;;;4264139;33;19951;-86
2021/05/11 11:16:59;;;;;;;;;;;;;;;;;;4238063;33;19958;-89
2021/05/11 11:19:38;;;;;;;;;;;;;;;;;;4277666;33;20032;-90
2021/05/11 11:25:28;;;;;;;;;;;;;;;;;;4262474;33;19961;-89
2021/05/11 11:28:05;;;;;;;;;;;;;;;;;;4253180;33;20463;-88
2021/05/11 11:30:37;;;;;;;;;;;;;;;;;;4263858;33;20331;-89
2021/05/11 11:33:11;;;;;;;;;;;;;;;;;;4239482;33;19962;-88
2021/05/11 11:35:44;;;;;;;;;;;;;;;;;;4253795;33;20349;-87
2021/05/11 11:38:15;;;;;;;;;;;;;;;;;;4250695;33;20438;-89
2021/05/11 11:40:46;;;;;;;;;;;;;;;;;;4261919;33;19973;-86
2021/05/11 11:46:15;;;;;;;;;;;;;;;;;;4266781;33;20005;-85
2021/05/11 11:48:52;;;;;;;;;;;;;;;;;;4253994;33;19985;-86
2021/05/11 11:51:24;;;;;;;;;;;;;;;;;;4260386;33;19999;-89
2021/05/11 11:59:41;;;;;;;;;;;;;;;;;;4256214;33;20344;-90
2021/05/11 12:02:10;;;;;;;;;;;;;;;;;;4255860;33;19982;-86
2021/05/11 12:04:51;;;;;;;;;;;;;;;;;;4241513;33;20360;-90
2021/05/11 12:07:28;;;;;;;;;;;;;;;;;;4270515;33;20332;-87
2021/05/11 12:09:57;;;;;;;;;;;;;;;;;;4289895;33;20002;-87
2021/05/11 12:12:25;;;;;;;;;;;;;;;;;;4265312;33;20439;-90
2021/05/11 12:14:59;;;;;;;;;;;;;;;;;;4268974;33;20005;-89
2021/05/11 12:17:34;;;;;;;;;;;;;;;;;;4259959;33;20005;-87
2021/05/11 12:20:05;;;;;;;;;;;;;;;;;;4264214;33;20012;-88
2021/05/11 12:22:38;;;;;;;;;;;;;;;;;;4268162;33;20009;-86
2021/05/11 12:25:06;;;;;;;;;;;;;;;;;;4270278;33;20514;-89
2021/05/11 12:27:38;;;;;;;;;;;;;;;;;;4259102;33;19953;-87
2021/05/11 12:30:11;;;;;;;;;;;;;;;;;;4268856;33;19961;-91
2021/05/11 12:32:40;;;;;;;;;;;;;;;;;;4276879;33;20004;-85
2021/05/11 12:35:13;;;;;;;;;;;;;;;;;;4268413;33;19965;-87
2021/05/11 12:37:46;;;;;;;;;;;;;;;;;;4268662;33;20126;-86
2021/05/11 12:40:30;;;;;;;;;;;;;;;;;;4260373;33;20008;-86
2021/05/11 12:43:02;;;;;;;;;;;;;;;;;;4286710;33;20012;-89
2021/05/11 12:45:35;;;;;;;;;;;;;;;;;;4290729;33;20107;-84
2021/05/11 12:48:09;;;;;;;;;;;;;;;;;;4279927;33;20396;-86
2021/05/11 12:50:43;;;;;;;;;;;;;;;;;;4276690;33;19977;-87
2021/05/11 12:53:14;;;;;;;;;;;;;;;;;;4269085;33;19961;-86
2021/05/11 13:01:12;;;;;;;;;;;;;;;;;;4266436;33;19971;-87
2021/05/11 13:03:49;;;;;;;;;;;;;;;;;;4282928;33;20037;-86
2021/05/11 13:09:35;;;;;;;;;;;;;;;;;;4279307;33;19954;-88
2021/05/11 13:28:34;;;;;;;;;;;;;;;;;;4264335;33;20085;-86
2021/05/11 13:31:17;;;;;;;;;;;;;;;;;;4272185;33;20008;-90
2021/05/11 13:36:41;;;;;;;;;;;;;;;;;;4264212;33;20487;-87
2021/05/11 13:39:09;;;;;;;;;;;;;;;;;;4247742;33;19997;-86
2021/05/11 13:41:43;;;;;;;;;;;;;;;;;;4273952;33;19981;-86
2021/05/11 13:44:27;;;;;;;;;;;;;;;;;;4268119;33;20000;-87
2021/05/11 13:47:04;;;;;;;;;;;;;;;;;;4252607;33;20318;-86
2021/05/11 13:49:33;;;;;;;;;;;;;;;;;;4258644;33;19960;-85
2021/05/11 13:52:07;;;;;;;;;;;;;;;;;;4252887;33;20162;-84
2021/05/11 13:54:41;;;;;;;;;;;;;;;;;;4266101;33;19957;-87
2021/05/11 14:02:50;;;;;;;;;;;;;;;;;;4276527;33;20032;-82
2021/05/11 14:05:18;;;;;;;;;;;;;;;;;;4265118;33;19965;-88
2021/05/11 14:07:47;;;;;;;;;;;;;;;;;;4262509;33;20061;-91
2021/05/11 14:10:17;;;;;;;;;;;;;;;;;;4275132;33;19972;-85
2021/05/11 14:12:49;;;;;;;;;;;;;;;;;;4271266;33;19961;-85
2021/05/11 14:15:21;;;;;;;;;;;;;;;;;;4257405;33;19999;-86
2021/05/11 14:17:49;;;;;;;;;;;;;;;;;;4255964;33;20012;-87
2021/05/11 14:20:24;;;;;;;;;;;;;;;;;;4254207;33;19980;-84
2021/05/11 14:22:57;;;;;;;;;;;;;;;;;;4277187;33;20005;-89
2021/05/11 14:25:34;;;;;;;;;;;;;;;;;;4267535;33;20000;-88
2021/05/11 14:28:06;;;;;;;;;;;;;;;;;;4257934;33;20028;-88
2021/05/11 14:30:35;;;;;;;;;;;;;;;;;;4260877;33;20000;-85
2021/05/11 14:33:06;;;;;;;;;;;;;;;;;;4256634;33;20395;-85
2021/05/11 14:35:36;;;;;;;;;;;;;;;;;;4276233;33;20625;-86
2021/05/11 14:38:05;;;;;;;;;;;;;;;;;;4278371;33;19949;-86
2021/05/11 14:40:36;;;;;;;;;;;;;;;;;;4270449;33;19969;-88
2021/05/11 14:43:15;;;;;;;;;;;;;;;;;;4280111;33;19987;-83
2021/05/11 14:45:43;;;;;;;;;;;;;;;;;;4265238;33;19971;-88
2021/05/11 14:48:12;;;;;;;;;;;;;;;;;;4281256;33;19961;-86
2021/05/11 14:50:50;;;;;;;;;;;;;;;;;;4287125;33;19954;-87
2021/05/11 14:53:31;;;;;;;;;;;;;;;;;;4258116;33;19957;-86
2021/05/11 14:56:01;;;;;;;;;;;;;;;;;;4278267;33;20060;-83
2021/05/11 14:58:41;;;;;;;;;;;;;;;;;;4265993;33;19972;-84
2021/05/11 15:01:16;;;;;;;;;;;;;;;;;;4263735;33;19993;-87
2021/05/11 15:04:01;;;;;;;;;;;;;;;;;;4279642;33;19961;-88
2021/05/11 15:06:40;;;;;;;;;;;;;;;;;;4264414;33;19961;-89
2021/05/11 15:09:12;;;;;;;;;;;;;;;;;;4284614;33;20023;-87
2021/05/11 15:11:44;;;;;;;;;;;;;;;;;;4267669;33;19973;-90
2021/05/11 15:14:13;;;;;;;;;;;;;;;;;;4272319;33;19985;-88
2021/05/11 15:16:56;;;;;;;;;;;;;;;;;;4247662;33;20058;-86
2021/05/11 15:19:28;;;;;;;;;;;;;;;;;;4281609;33;19992;-87
2021/05/11 15:22:05;;;;;;;;;;;;;;;;;;4275298;33;19961;-89
2021/05/11 15:24:35;;;;;;;;;;;;;;;;;;4283372;33;20249;-87
2021/05/11 15:27:06;;;;;;;;;;;;;;;;;;4287375;33;19965;-88
2021/05/11 15:29:42;;;;;;;;;;;;;;;;;;4265613;33;20019;-89
2021/05/11 15:32:10;;;;;;;;;;;;;;;;;;4278145;33;19997;-87
2021/05/11 15:34:41;;;;;;;;;;;;;;;;;;4263332;33;20398;-84
2021/05/11 15:37:24;;;;;;;;;;;;;;;;;;4275353;33;20337;-86
2021/05/11 15:39:59;;;;;;;;;;;;;;;;;;4285402;33;19969;-87
2021/05/11 15:42:31;;;;;;;;;;;;;;;;;;4280427;33;19961;-82
2021/05/11 15:45:00;;;;;;;;;;;;;;;;;;4280248;33;19961;-87
2021/05/11 15:47:33;;;;;;;;;;;;;;;;;;4277906;33;20419;-88
2021/05/11 15:50:04;;;;;;;;;;;;;;;;;;4274261;33;20006;-86
2021/05/11 15:52:39;;;;;;;;;;;;;;;;;;4254509;33;19998;-89
2021/05/11 15:55:10;;;;;;;;;;;;;;;;;;4259630;33;19953;-88
2021/05/11 15:57:44;;;;;;;;;;;;;;;;;;4280088;33;19974;-92
2021/05/11 16:00:19;;;;;;;;;;;;;;;;;;4281370;33;19988;-88
2021/05/11 16:02:51;;;;;;;;;;;;;;;;;;4283428;33;19968;-84
2021/05/11 16:05:37;;;;;;;;;;;;;;;;;;4271858;33;19965;-86
2021/05/11 16:08:10;;;;;;;;;;;;;;;;;;4277590;33;20301;-86
2021/05/11 16:10:39;;;;;;;;;;;;;;;;;;4289659;33;20007;-90
2021/05/11 16:13:12;;;;;;;;;;;;;;;;;;4267570;33;20265;-86
2021/05/11 16:15:45;;;;;;;;;;;;;;;;;;4282161;33;19992;-90
2021/05/11 16:18:19;;;;;;;;;;;;;;;;;;4269250;33;19961;-84
2021/05/11 16:20:47;;;;;;;;;;;;;;;;;;4269409;33;20084;-85
2021/05/11 16:23:18;;;;;;;;;;;;;;;;;;4264008;33;19962;-87
2021/05/11 16:25:56;;;;;;;;;;;;;;;;;;4272661;33;20380;-88
2021/05/11 16:28:27;;;;;;;;;;;;;;;;;;4278631;33;20501;-86
2021/05/11 16:31:04;;;;;;;;;;;;;;;;;;4282640;33;19996;-86
2021/05/11 16:33:35;;;;;;;;;;;;;;;;;;4291776;33;19979;-84
2021/05/11 16:36:15;;;;;;;;;;;;;;;;;;4268439;33;19957;-86
2021/05/11 16:38:47;;;;;;;;;;;;;;;;;;4268349;33;20400;-88
2021/05/11 16:41:20;;;;;;;;;;;;;;;;;;4268032;33;21179;-83
2021/05/11 16:43:50;;;;;;;;;;;;;;;;;;4276614;33;19969;-85
2021/05/11 16:46:35;;;;;;;;;;;;;;;;;;4266082;33;20016;-93
2021/05/11 16:49:20;;;;;;;;;;;;;;;;;;4267104;33;19957;-89
2021/05/11 16:51:54;;;;;;;;;;;;;;;;;;4281692;33;19956;-88
2021/05/11 16:54:25;;;;;;;;;;;;;;;;;;4278349;33;19961;-88
2021/05/11 16:57:10;;;;;;;;;;;;;;;;;;4281157;33;20000;-85
2021/05/11 16:59:40;;;;;;;;;;;;;;;;;;4272857;33;20320;-87
2021/05/11 17:02:16;;;;;;;;;;;;;;;;;;4272251;33;19992;-85
2021/05/11 17:04:45;;;;;;;;;;;;;;;;;;4279372;33;20024;-87
2021/05/11 17:07:16;;;;;;;;;;;;;;;;;;4262703;33;20008;-87
2021/05/11 17:09:53;;;;;;;;;;;;;;;;;;4274659;33;19964;-87
2021/05/11 17:12:26;;;;;;;;;;;;;;;;;;4268566;33;19977;-83
2021/05/11 17:15:03;;;;;;;;;;;;;;;;;;4277200;33;19976;-90
2021/05/11 17:17:32;;;;;;;;;;;;;;;;;;4271824;33;19993;-88
2021/05/11 17:20:02;;;;;;;;;;;;;;;;;;4261058;33;20000;-90
2021/05/11 17:22:33;;;;;;;;;;;;;;;;;;4275278;33;19990;-88
2021/05/11 17:27:41;;;;;;;;;;;;;;;;;;4253455;33;19980;-86
2021/05/11 17:30:13;;;;;;;;;;;;;;;;;;4262666;33;20008;-89
2021/05/11 17:32:45;;;;;;;;;;;;;;;;;;4284420;33;19964;-88
2021/05/11 17:35:21;;;;;;;;;;;;;;;;;;4268642;33;19969;-85
2021/05/11 17:37:49;;;;;;;;;;;;;;;;;;4267879;33;19980;-88
2021/05/11 17:40:23;;;;;;;;;;;;;;;;;;4267753;33;20042;-83
2021/05/11 17:42:55;;;;;;;;;;;;;;;;;;4262353;33;19996;-85
2021/05/11 17:45:27;;;;;;;;;;;;;;;;;;4279827;33;20025;-89
2021/05/11 17:48:12;;;;;;;;;;;;;;;;;;4276723;33;19961;-87
2021/05/11 17:53:31;;;;;;;;;;;;;;;;;;4283698;33;19961;-86
2021/05/11 17:56:35;;;;;;;;;;;;;;;;;;4260402;33;19993;-87
2021/05/11 17:59:09;;;;;;;;;;;;;;;;;;4280008;33;20340;-88
2021/05/11 18:01:49;;;;;;;;;;;;;;;;;;4292969;33;19965;-90
2021/05/11 18:04:20;;;;;;;;;;;;;;;;;;4268954;33;20370;-87
2021/05/11 18:06:58;;;;;;;;;;;;;;;;;;4264056;33;19953;-88
2021/05/11 18:09:42;;;;;;;;;;;;;;;;;;;;;
2021/05/11 18:12:11;;;;;;;;;;;;;;;;;;4279838;33;20546;-86
2021/05/11 18:14:40;;;;;;;;;;;;;;;;;;4283287;33;19955;-88
2021/05/11 18:17:33;;;;;;;;;;;;;;;;;;4262069;33;19968;-87
2021/05/11 18:20:04;;;;;;;;;;;;;;;;;;4285233;33;19996;-88
2021/05/11 18:22:50;;;;;;;;;;;;;;;;;;4245081;33;19970;-89
2021/05/11 18:25:22;;;;;;;;;;;;;;;;;;4261772;33;20293;-88
2021/05/11 18:30:50;;;;;;;;;;;;;;;;;;4228897;33;19980;-89
2021/05/11 18:33:21;;;;;;;;;;;;;;;;;;4239272;33;19992;-84
2021/05/11 18:36:33;;;;;;;;;;;;;;;;;;4245965;33;20024;-85
2021/05/11 18:39:12;;;;;;;;;;;;;;;;;;4240846;33;20002;-84
2021/05/11 18:41:54;;;;;;;;;;;;;;;;;;4243162;33;20079;-91
2021/05/11 18:44:40;;;;;;;;;;;;;;;;;;4241169;33;20008;-87
2021/05/11 18:47:12;;;;;;;;;;;;;;;;;;4239327;33;20053;-87
2021/05/11 18:50:06;;;;;;;;;;;;;;;;;;4239854;33;20360;-86
2021/05/11 18:52:37;;;;;;;;;;;;;;;;;;4257420;33;19997;-87
2021/05/11 18:55:41;;;;;;;;;;;;;;;;;;4184906;33;20016;-85
2021/05/11 18:58:17;;;;;;;;;;;;;;;;;;4240814;33;20945;-88
2021/05/11 19:00:59;;;;;;;;;;;;;;;;;;4263305;33;19975;-90
2021/05/11 19:03:37;;;;;;;;;;;;;;;;;;4281783;33;19965;-89
2021/05/11 19:09:35;;;;;;;;;;;;;;;;;;4251916;33;19966;-87
2021/05/11 19:12:08;;;;;;;;;;;;;;;;;;4264285;33;20372;-87
2021/05/11 19:15:22;;;;;;;;;;;;;;;;;;4253913;33;20228;-85
2021/05/11 19:18:27;;;;;;;;;;;;;;;;;;4268731;33;19962;-88
2021/05/11 19:21:01;;;;;;;;;;;;;;;;;;4243987;33;20004;-88
2021/05/11 19:24:03;;;;;;;;;;;;;;;;;;4266119;33;19970;-87
2021/05/11 19:26:42;;;;;;;;;;;;;;;;;;4269142;33;20047;-86
2021/05/11 19:29:13;;;;;;;;;;;;;;;;;;4273965;33;19969;-86
2021/05/11 19:31:47;;;;;;;;;;;;;;;;;;4268665;33;19977;-87
2021/05/11 19:34:24;;;;;;;;;;;;;;;;;;4265346;33;19985;-90
2021/05/11 19:37:07;;;;;;;;;;;;;;;;;;4278767;33;20291;-92
2021/05/11 19:42:47;;;;;;;;;;;;;;;;;;4273934;33;20321;-87
2021/05/11 19:45:36;;;;;;;;;;;;;;;;;;4277454;33;19961;-90
2021/05/11 19:48:43;;;;;;;;;;;;;;;;;;4194663;33;19987;-89
2021/05/11 19:54:10;;;;;;;;;;;;;;;;;;4279280;33;19974;-87
2021/05/11 19:56:59;;;;;;;;;;;;;;;;;;4268577;33;20376;-90
2021/05/11 20:00:22;;;;;;;;;;;;;;;;;;4231608;33;19986;-85
2021/05/11 20:03:22;;;;;;;;;;;;;;;;;;4235526;33;19961;-91
2021/05/11 20:06:08;;;;;;;;;;;;;;;;;;4248061;33;19961;-86
2021/05/11 20:08:57;;;;;;;;;;;;;;;;;;4244181;33;19961;-90
2021/05/11 20:11:57;;;;;;;;;;;;;;;;;;4259715;33;19961;-90
2021/05/11 20:14:45;;;;;;;;;;;;;;;;;;4280806;33;20008;-87
2021/05/11 20:20:46;;;;;;;;;;;;;;;;;;4264659;33;19977;-88
2021/05/11 20:23:44;;;;;;;;;;;;;;;;;;4280472;33;20369;-90
2021/05/11 20:26:14;;;;;;;;;;;;;;;;;;4258467;33;20009;-85
2021/05/11 20:28:52;;;;;;;;;;;;;;;;;;4274903;33;20348;-87
2021/05/11 20:31:24;;;;;;;;;;;;;;;;;;4274585;33;20004;-87
2021/05/11 20:33:56;;;;;;;;;;;;;;;;;;4291320;33;20028;-89
2021/05/11 20:36:33;;;;;;;;;;;;;;;;;;4260055;33;20015;-89
2021/05/11 20:39:09;;;;;;;;;;;;;;;;;;4272264;33;19989;-88
2021/05/11 20:42:10;;;;;;;;;;;;;;;;;;4285867;33;19968;-86
2021/05/11 20:44:51;;;;;;;;;;;;;;;;;;4279861;33;20020;-89
2021/05/11 20:47:36;;;;;;;;;;;;;;;;;;4275355;33;20380;-90
2021/05/11 20:50:16;;;;;;;;;;;;;;;;;;4264652;33;19965;-86
2021/05/11 20:53:07;;;;;;;;;;;;;;;;;;4279187;33;19964;-92
2021/05/11 20:56:17;;;;;;;;;;;;;;;;;;;;;
2021/05/11 20:59:13;;;;;;;;;;;;;;;;;;4231293;33;19969;-88
2021/05/11 21:02:08;;;;;;;;;;;;;;;;;;4233093;33;20011;-88
2021/05/11 21:05:02;;;;;;;;;;;;;;;;;;4239396;33;20317;-90
2021/05/11 21:08:06;;;;;;;;;;;;;;;;;;4220260;34;20323;-90
2021/05/11 21:10:50;;;;;;;;;;;;;;;;;;4227241;33;20529;-89
2021/05/11 21:13:24;;;;;;;;;;;;;;;;;;4227749;33;19985;-86
2021/05/11 21:15:54;;;;;;;;;;;;;;;;;;4232087;33;19986;-86
2021/05/11 21:18:37;;;;;;;;;;;;;;;;;;4219945;33;20397;-88
2021/05/11 21:24:38;;;;;;;;;;;;;;;;;;4231408;33;20605;-85
2021/05/11 21:27:13;;;;;;;;;;;;;;;;;;4256600;33;20371;-91
2021/05/11 21:30:04;;;;;;;;;;;;;;;;;;4252071;33;20308;-88
2021/05/11 21:35:52;;;;;;;;;;;;;;;;;;4250592;33;19961;-88
2021/05/11 21:38:53;;;;;;;;;;;;;;;;;;4262350;33;20385;-87
2021/05/11 21:41:48;;;;;;;;;;;;;;;;;;4235270;33;20008;-86
2021/05/11 21:47:19;;;;;;;;;;;;;;;;;;4264746;33;20007;-88
2021/05/11 21:50:01;;;;;;;;;;;;;;;;;;4255509;33;20083;-88
2021/05/11 21:52:51;;;;;;;;;;;;;;;;;;4257399;33;20041;-93
2021/05/11 21:55:44;;;;;;;;;;;;;;;;;;4248952;33;19979;-88
2021/05/11 21:58:39;;;;;;;;;;;;;;;;;;4255571;33;19987;-88
2021/05/11 22:01:21;;;;;;;;;;;;;;;;;;4256669;33;20000;-88
2021/05/11 22:07:10;;;;;;;;;;;;;;;;;;4248859;33;20305;-89
2021/05/11 22:10:02;;;;;;;;;;;;;;;;;;4195494;34;20032;-88
2021/05/11 22:12:31;;;;;;;;;;;;;;;;;;4202253;34;20011;-90
2021/05/11 22:15:46;;;;;;;;;;;;;;;;;;4226222;33;20254;-89
2021/05/11 22:18:25;;;;;;;;;;;;;;;;;;4265691;33;19980;-85
2021/05/11 22:21:25;;;;;;;;;;;;;;;;;;4243794;33;20028;-90
2021/05/11 22:24:02;;;;;;;;;;;;;;;;;;4258526;33;19977;-88
2021/05/11 22:26:45;;;;;;;;;;;;;;;;;;4249624;33;19975;-88
2021/05/11 22:29:16;;;;;;;;;;;;;;;;;;4248866;33;20004;-88
2021/05/11 22:31:50;;;;;;;;;;;;;;;;;;4248181;33;19961;-87